sensor_id;sensor_type;location;lat;lon;timestamp;P1;durP1;ratioP1;P2;durP2;ratioP2
16472;SDS011;8347;52.486;13.432;2023-08-08T00:01:13;4.20;;;1.75;;
16472;SDS011;8347;52.486;13.432;2023-08-08T00:04:00;6.40;;;1.90;;
16472;SDS011;8347;52.486;13.432;2023-08-08T00:06:46;4.75;;;2.20;;
16472;SDS011;8347;52.486;13.432;2023-08-08T00:09:33;5.38;;;1.98;;
16472;SDS011;8347;52.486;13.432;2023-08-08T00:12:20;8.00;;;2.22;;
16472;SDS011;8347;52.486;13.432;2023-08-08T00:15:06;6.57;;;2.20;;
16472;SDS011;8347;52.486;13.432;2023-08-08T00:17:53;3.97;;;2.35;;
16472;SDS011;8347;52.486;13.432;2023-08-08T00:20:39;3.10;;;1.88;;
16472;SDS011;8347;52.486;13.432;2023-08-08T00:23:26;4.93;;;2.53;;
16472;SDS011;8347;52.486;13.432;2023-08-08T00:26:12;4.55;;;2.10;;
16472;SDS011;8347;52.486;13.432;2023-08-08T00:28:59;4.68;;;1.83;;
16472;SDS011;8347;52.486;13.432;2023-08-08T00:31:46;5.25;;;2.20;;
16472;SDS011;8347;52.486;13.432;2023-08-08T00:34:32;6.25;;;2.25;;
16472;SDS011;8347;52.486;13.432;2023-08-08T00:37:18;3.80;;;2.08;;
16472;SDS011;8347;52.486;13.432;2023-08-08T00:40:05;4.47;;;2.33;;
16472;SDS011;8347;52.486;13.432;2023-08-08T00:42:52;7.10;;;1.65;;
16472;SDS011;8347;52.486;13.432;2023-08-08T00:45:39;6.20;;;1.88;;
16472;SDS011;8347;52.486;13.432;2023-08-08T00:48:30;5.28;;;2.00;;
16472;SDS011;8347;52.486;13.432;2023-08-08T00:51:16;4.95;;;2.22;;
16472;SDS011;8347;52.486;13.432;2023-08-08T00:54:03;3.95;;;2.10;;
16472;SDS011;8347;52.486;13.432;2023-08-08T00:56:50;3.10;;;1.77;;
16472;SDS011;8347;52.486;13.432;2023-08-08T00:59:37;3.78;;;1.80;;
16472;SDS011;8347;52.486;13.432;2023-08-08T01:02:23;4.00;;;1.75;;
16472;SDS011;8347;52.486;13.432;2023-08-08T01:05:09;5.57;;;2.03;;
16472;SDS011;8347;52.486;13.432;2023-08-08T01:10:43;3.03;;;1.77;;
16472;SDS011;8347;52.486;13.432;2023-08-08T01:13:30;5.45;;;2.13;;
16472;SDS011;8347;52.486;13.432;2023-08-08T01:16:17;3.35;;;2.25;;
16472;SDS011;8347;52.486;13.432;2023-08-08T01:19:06;5.60;;;2.00;;
16472;SDS011;8347;52.486;13.432;2023-08-08T01:21:53;4.85;;;1.70;;
16472;SDS011;8347;52.486;13.432;2023-08-08T01:24:43;4.35;;;2.17;;
16472;SDS011;8347;52.486;13.432;2023-08-08T01:27:30;8.02;;;2.53;;
16472;SDS011;8347;52.486;13.432;2023-08-08T01:30:16;5.32;;;2.15;;
16472;SDS011;8347;52.486;13.432;2023-08-08T01:33:04;7.13;;;2.55;;
16472;SDS011;8347;52.486;13.432;2023-08-08T01:35:54;4.47;;;2.17;;
16472;SDS011;8347;52.486;13.432;2023-08-08T01:39:00;2.20;;;1.67;;
16472;SDS011;8347;52.486;13.432;2023-08-08T01:41:50;3.08;;;1.88;;
16472;SDS011;8347;52.486;13.432;2023-08-08T01:44:38;4.60;;;1.85;;
16472;SDS011;8347;52.486;13.432;2023-08-08T01:47:27;3.08;;;1.77;;
16472;SDS011;8347;52.486;13.432;2023-08-08T01:50:13;2.83;;;1.50;;
16472;SDS011;8347;52.486;13.432;2023-08-08T01:52:59;4.28;;;1.67;;
16472;SDS011;8347;52.486;13.432;2023-08-08T01:55:46;3.30;;;1.90;;
16472;SDS011;8347;52.486;13.432;2023-08-08T01:58:32;4.40;;;1.70;;
16472;SDS011;8347;52.486;13.432;2023-08-08T02:01:19;4.35;;;1.40;;
16472;SDS011;8347;52.486;13.432;2023-08-08T02:04:05;3.85;;;1.70;;
16472;SDS011;8347;52.486;13.432;2023-08-08T02:06:52;3.08;;;1.73;;
16472;SDS011;8347;52.486;13.432;2023-08-08T02:09:38;2.38;;;1.45;;
16472;SDS011;8347;52.486;13.432;2023-08-08T02:12:25;4.00;;;1.27;;
16472;SDS011;8347;52.486;13.432;2023-08-08T02:15:12;1.98;;;1.55;;
16472;SDS011;8347;52.486;13.432;2023-08-08T02:17:59;3.97;;;1.98;;
16472;SDS011;8347;52.486;13.432;2023-08-08T02:20:45;2.95;;;1.40;;
16472;SDS011;8347;52.486;13.432;2023-08-08T02:23:32;2.85;;;1.92;;
16472;SDS011;8347;52.486;13.432;2023-08-08T02:26:18;3.50;;;1.65;;
16472;SDS011;8347;52.486;13.432;2023-08-08T02:29:04;3.45;;;1.95;;
16472;SDS011;8347;52.486;13.432;2023-08-08T02:31:51;3.30;;;1.60;;
16472;SDS011;8347;52.486;13.432;2023-08-08T02:34:38;4.80;;;1.60;;
16472;SDS011;8347;52.486;13.432;2023-08-08T02:37:24;4.75;;;1.67;;
16472;SDS011;8347;52.486;13.432;2023-08-08T02:40:10;3.13;;;1.92;;
16472;SDS011;8347;52.486;13.432;2023-08-08T02:42:57;4.95;;;1.58;;
16472;SDS011;8347;52.486;13.432;2023-08-08T02:45:44;3.83;;;1.95;;
16472;SDS011;8347;52.486;13.432;2023-08-08T02:48:30;3.15;;;1.77;;
16472;SDS011;8347;52.486;13.432;2023-08-08T02:51:17;4.25;;;1.67;;
16472;SDS011;8347;52.486;13.432;2023-08-08T02:54:03;3.47;;;1.52;;
16472;SDS011;8347;52.486;13.432;2023-08-08T02:56:52;3.65;;;1.95;;
16472;SDS011;8347;52.486;13.432;2023-08-08T02:59:39;4.47;;;1.60;;
16472;SDS011;8347;52.486;13.432;2023-08-08T03:02:26;2.88;;;1.80;;
16472;SDS011;8347;52.486;13.432;2023-08-08T03:05:13;2.45;;;1.70;;
16472;SDS011;8347;52.486;13.432;2023-08-08T03:07:59;3.80;;;2.17;;
16472;SDS011;8347;52.486;13.432;2023-08-08T03:10:46;3.75;;;2.08;;
16472;SDS011;8347;52.486;13.432;2023-08-08T03:13:33;4.13;;;2.40;;
16472;SDS011;8347;52.486;13.432;2023-08-08T03:16:20;4.68;;;2.15;;
16472;SDS011;8347;52.486;13.432;2023-08-08T03:19:07;4.53;;;1.73;;
16472;SDS011;8347;52.486;13.432;2023-08-08T03:21:54;5.07;;;1.70;;
16472;SDS011;8347;52.486;13.432;2023-08-08T03:24:40;4.00;;;2.20;;
16472;SDS011;8347;52.486;13.432;2023-08-08T03:27:27;5.60;;;2.20;;
16472;SDS011;8347;52.486;13.432;2023-08-08T03:30:13;5.57;;;2.30;;
16472;SDS011;8347;52.486;13.432;2023-08-08T03:33:02;5.72;;;2.08;;
16472;SDS011;8347;52.486;13.432;2023-08-08T03:35:48;3.67;;;1.60;;
16472;SDS011;8347;52.486;13.432;2023-08-08T03:38:36;4.50;;;2.28;;
16472;SDS011;8347;52.486;13.432;2023-08-08T03:41:23;5.75;;;2.33;;
16472;SDS011;8347;52.486;13.432;2023-08-08T03:44:10;4.25;;;2.53;;
16472;SDS011;8347;52.486;13.432;2023-08-08T03:46:56;5.90;;;2.20;;
16472;SDS011;8347;52.486;13.432;2023-08-08T03:49:43;3.53;;;1.98;;
16472;SDS011;8347;52.486;13.432;2023-08-08T03:52:31;4.78;;;1.77;;
16472;SDS011;8347;52.486;13.432;2023-08-08T03:55:20;3.95;;;2.00;;
16472;SDS011;8347;52.486;13.432;2023-08-08T03:58:06;4.25;;;2.35;;
16472;SDS011;8347;52.486;13.432;2023-08-08T04:00:54;3.53;;;1.88;;
16472;SDS011;8347;52.486;13.432;2023-08-08T04:03:40;1.95;;;1.50;;
16472;SDS011;8347;52.486;13.432;2023-08-08T04:06:26;3.60;;;1.80;;
16472;SDS011;8347;52.486;13.432;2023-08-08T04:09:13;3.15;;;2.20;;
16472;SDS011;8347;52.486;13.432;2023-08-08T04:11:59;3.67;;;1.73;;
16472;SDS011;8347;52.486;13.432;2023-08-08T04:14:46;6.13;;;2.15;;
16472;SDS011;8347;52.486;13.432;2023-08-08T04:17:33;3.50;;;2.08;;
16472;SDS011;8347;52.486;13.432;2023-08-08T04:20:20;2.65;;;1.77;;
16472;SDS011;8347;52.486;13.432;2023-08-08T04:23:07;6.38;;;3.05;;
16472;SDS011;8347;52.486;13.432;2023-08-08T04:25:53;3.42;;;1.83;;
16472;SDS011;8347;52.486;13.432;2023-08-08T04:28:40;3.47;;;1.73;;
16472;SDS011;8347;52.486;13.432;2023-08-08T04:31:26;6.10;;;2.10;;
16472;SDS011;8347;52.486;13.432;2023-08-08T04:34:12;2.38;;;1.40;;
16472;SDS011;8347;52.486;13.432;2023-08-08T04:36:59;6.10;;;2.08;;
16472;SDS011;8347;52.486;13.432;2023-08-08T04:39:45;3.33;;;1.65;;
16472;SDS011;8347;52.486;13.432;2023-08-08T04:42:32;4.90;;;2.03;;
16472;SDS011;8347;52.486;13.432;2023-08-08T04:45:18;3.08;;;1.88;;
16472;SDS011;8347;52.486;13.432;2023-08-08T04:48:06;2.83;;;1.88;;
16472;SDS011;8347;52.486;13.432;2023-08-08T04:50:52;2.75;;;1.75;;
16472;SDS011;8347;52.486;13.432;2023-08-08T04:53:39;4.10;;;1.50;;
16472;SDS011;8347;52.486;13.432;2023-08-08T04:56:26;3.67;;;1.63;;
16472;SDS011;8347;52.486;13.432;2023-08-08T04:59:12;4.63;;;1.80;;
16472;SDS011;8347;52.486;13.432;2023-08-08T05:01:59;2.42;;;1.85;;
16472;SDS011;8347;52.486;13.432;2023-08-08T05:04:46;2.95;;;1.73;;
16472;SDS011;8347;52.486;13.432;2023-08-08T05:07:32;6.93;;;2.10;;
16472;SDS011;8347;52.486;13.432;2023-08-08T05:10:22;3.75;;;1.75;;
16472;SDS011;8347;52.486;13.432;2023-08-08T05:13:09;2.63;;;1.67;;
16472;SDS011;8347;52.486;13.432;2023-08-08T05:15:55;7.35;;;2.40;;
16472;SDS011;8347;52.486;13.432;2023-08-08T05:18:42;3.80;;;1.55;;
16472;SDS011;8347;52.486;13.432;2023-08-08T05:21:30;7.00;;;2.05;;
16472;SDS011;8347;52.486;13.432;2023-08-08T05:24:17;2.85;;;2.40;;
16472;SDS011;8347;52.486;13.432;2023-08-08T05:27:03;4.85;;;1.70;;
16472;SDS011;8347;52.486;13.432;2023-08-08T05:29:50;6.68;;;1.90;;
16472;SDS011;8347;52.486;13.432;2023-08-08T05:32:36;3.40;;;1.75;;
16472;SDS011;8347;52.486;13.432;2023-08-08T05:35:23;3.97;;;1.92;;
16472;SDS011;8347;52.486;13.432;2023-08-08T05:38:10;3.42;;;1.75;;
16472;SDS011;8347;52.486;13.432;2023-08-08T05:40:56;5.85;;;1.88;;
16472;SDS011;8347;52.486;13.432;2023-08-08T05:43:43;4.75;;;1.60;;
16472;SDS011;8347;52.486;13.432;2023-08-08T05:46:30;4.53;;;1.63;;
16472;SDS011;8347;52.486;13.432;2023-08-08T05:49:16;5.18;;;1.70;;
16472;SDS011;8347;52.486;13.432;2023-08-08T05:52:03;7.35;;;2.00;;
16472;SDS011;8347;52.486;13.432;2023-08-08T05:54:50;4.15;;;2.45;;
16472;SDS011;8347;52.486;13.432;2023-08-08T05:57:36;3.22;;;1.80;;
16472;SDS011;8347;52.486;13.432;2023-08-08T06:00:23;3.50;;;1.55;;
16472;SDS011;8347;52.486;13.432;2023-08-08T06:03:10;3.15;;;2.17;;
16472;SDS011;8347;52.486;13.432;2023-08-08T06:05:57;6.03;;;2.78;;
16472;SDS011;8347;52.486;13.432;2023-08-08T06:08:43;3.83;;;2.13;;
16472;SDS011;8347;52.486;13.432;2023-08-08T06:11:30;5.25;;;2.05;;
16472;SDS011;8347;52.486;13.432;2023-08-08T06:14:17;2.20;;;1.60;;
16472;SDS011;8347;52.486;13.432;2023-08-08T06:17:03;2.78;;;1.48;;
16472;SDS011;8347;52.486;13.432;2023-08-08T06:19:51;3.08;;;1.77;;
16472;SDS011;8347;52.486;13.432;2023-08-08T06:22:40;5.00;;;1.70;;
16472;SDS011;8347;52.486;13.432;2023-08-08T06:25:27;3.33;;;2.35;;
16472;SDS011;8347;52.486;13.432;2023-08-08T06:28:14;5.68;;;4.00;;
16472;SDS011;8347;52.486;13.432;2023-08-08T06:31:00;8.90;;;5.38;;
16472;SDS011;8347;52.486;13.432;2023-08-08T06:33:47;7.32;;;3.70;;
16472;SDS011;8347;52.486;13.432;2023-08-08T06:36:34;4.90;;;1.98;;
16472;SDS011;8347;52.486;13.432;2023-08-08T06:39:21;8.18;;;3.67;;
16472;SDS011;8347;52.486;13.432;2023-08-08T06:42:07;5.53;;;1.92;;
16472;SDS011;8347;52.486;13.432;2023-08-08T06:45:06;5.40;;;3.38;;
16472;SDS011;8347;52.486;13.432;2023-08-08T06:47:53;12.48;;;6.25;;
16472;SDS011;8347;52.486;13.432;2023-08-08T06:50:39;6.22;;;3.42;;
16472;SDS011;8347;52.486;13.432;2023-08-08T06:53:26;8.32;;;5.15;;
16472;SDS011;8347;52.486;13.432;2023-08-08T06:56:13;7.97;;;4.32;;
16472;SDS011;8347;52.486;13.432;2023-08-08T06:58:59;8.25;;;4.50;;
16472;SDS011;8347;52.486;13.432;2023-08-08T07:01:45;4.75;;;2.80;;
16472;SDS011;8347;52.486;13.432;2023-08-08T07:04:32;5.18;;;2.65;;
16472;SDS011;8347;52.486;13.432;2023-08-08T07:07:18;7.85;;;2.72;;
16472;SDS011;8347;52.486;13.432;2023-08-08T07:10:05;3.10;;;2.15;;
16472;SDS011;8347;52.486;13.432;2023-08-08T07:12:52;4.72;;;2.53;;
16472;SDS011;8347;52.486;13.432;2023-08-08T07:15:38;4.93;;;1.75;;
16472;SDS011;8347;52.486;13.432;2023-08-08T07:18:25;2.78;;;2.38;;
16472;SDS011;8347;52.486;13.432;2023-08-08T07:21:11;2.75;;;2.15;;
16472;SDS011;8347;52.486;13.432;2023-08-08T07:23:58;6.53;;;2.22;;
16472;SDS011;8347;52.486;13.432;2023-08-08T07:26:44;11.52;;;2.15;;
16472;SDS011;8347;52.486;13.432;2023-08-08T07:29:30;3.97;;;1.88;;
16472;SDS011;8347;52.486;13.432;2023-08-08T07:32:17;5.05;;;1.80;;
16472;SDS011;8347;52.486;13.432;2023-08-08T07:35:03;4.82;;;2.10;;
16472;SDS011;8347;52.486;13.432;2023-08-08T07:37:51;3.78;;;2.00;;
16472;SDS011;8347;52.486;13.432;2023-08-08T07:40:38;4.78;;;1.80;;
16472;SDS011;8347;52.486;13.432;2023-08-08T07:43:26;3.92;;;1.55;;
16472;SDS011;8347;52.486;13.432;2023-08-08T07:46:13;6.13;;;1.90;;
16472;SDS011;8347;52.486;13.432;2023-08-08T07:48:59;10.13;;;2.05;;
16472;SDS011;8347;52.486;13.432;2023-08-08T07:51:49;3.03;;;1.67;;
16472;SDS011;8347;52.486;13.432;2023-08-08T07:54:35;3.58;;;2.10;;
16472;SDS011;8347;52.486;13.432;2023-08-08T07:57:22;4.95;;;2.30;;
16472;SDS011;8347;52.486;13.432;2023-08-08T08:00:08;3.83;;;1.85;;
16472;SDS011;8347;52.486;13.432;2023-08-08T08:02:59;2.20;;;1.35;;
16472;SDS011;8347;52.486;13.432;2023-08-08T08:05:45;2.42;;;1.58;;
16472;SDS011;8347;52.486;13.432;2023-08-08T08:08:32;4.30;;;2.17;;
16472;SDS011;8347;52.486;13.432;2023-08-08T08:11:19;7.32;;;2.35;;
16472;SDS011;8347;52.486;13.432;2023-08-08T08:14:05;3.08;;;2.08;;
16472;SDS011;8347;52.486;13.432;2023-08-08T08:16:51;4.45;;;2.20;;
16472;SDS011;8347;52.486;13.432;2023-08-08T08:19:38;3.85;;;2.50;;
16472;SDS011;8347;52.486;13.432;2023-08-08T08:22:24;3.95;;;2.35;;
16472;SDS011;8347;52.486;13.432;2023-08-08T08:25:11;4.10;;;2.25;;
16472;SDS011;8347;52.486;13.432;2023-08-08T08:27:58;6.50;;;2.10;;
16472;SDS011;8347;52.486;13.432;2023-08-08T08:30:44;2.92;;;1.88;;
16472;SDS011;8347;52.486;13.432;2023-08-08T08:33:31;3.42;;;1.67;;
16472;SDS011;8347;52.486;13.432;2023-08-08T08:36:17;4.45;;;1.70;;
16472;SDS011;8347;52.486;13.432;2023-08-08T08:39:04;4.47;;;1.90;;
16472;SDS011;8347;52.486;13.432;2023-08-08T08:41:53;3.53;;;1.83;;
16472;SDS011;8347;52.486;13.432;2023-08-08T08:44:40;3.45;;;1.48;;
16472;SDS011;8347;52.486;13.432;2023-08-08T08:47:28;4.13;;;2.22;;
16472;SDS011;8347;52.486;13.432;2023-08-08T08:50:16;4.25;;;2.33;;
16472;SDS011;8347;52.486;13.432;2023-08-08T08:53:04;5.18;;;2.60;;
16472;SDS011;8347;52.486;13.432;2023-08-08T08:55:51;5.68;;;2.78;;
16472;SDS011;8347;52.486;13.432;2023-08-08T08:58:39;4.18;;;2.35;;
16472;SDS011;8347;52.486;13.432;2023-08-08T09:01:26;3.30;;;2.05;;
16472;SDS011;8347;52.486;13.432;2023-08-08T09:04:14;7.68;;;2.80;;
16472;SDS011;8347;52.486;13.432;2023-08-08T09:07:02;7.63;;;5.28;;
16472;SDS011;8347;52.486;13.432;2023-08-08T09:09:51;2.97;;;2.03;;
16472;SDS011;8347;52.486;13.432;2023-08-08T09:12:37;3.40;;;1.90;;
16472;SDS011;8347;52.486;13.432;2023-08-08T09:15:24;2.30;;;2.10;;
16472;SDS011;8347;52.486;13.432;2023-08-08T09:18:11;7.22;;;2.75;;
16472;SDS011;8347;52.486;13.432;2023-08-08T09:20:57;3.97;;;2.20;;
16472;SDS011;8347;52.486;13.432;2023-08-08T09:23:44;5.10;;;1.90;;
16472;SDS011;8347;52.486;13.432;2023-08-08T09:26:31;2.53;;;2.10;;
16472;SDS011;8347;52.486;13.432;2023-08-08T09:29:18;5.53;;;1.92;;
16472;SDS011;8347;52.486;13.432;2023-08-08T09:32:05;3.70;;;2.35;;
16472;SDS011;8347;52.486;13.432;2023-08-08T09:34:52;4.47;;;2.10;;
16472;SDS011;8347;52.486;13.432;2023-08-08T09:37:38;4.03;;;1.77;;
16472;SDS011;8347;52.486;13.432;2023-08-08T09:40:25;4.30;;;2.17;;
16472;SDS011;8347;52.486;13.432;2023-08-08T09:43:12;5.55;;;2.05;;
16472;SDS011;8347;52.486;13.432;2023-08-08T09:45:59;8.63;;;4.00;;
16472;SDS011;8347;52.486;13.432;2023-08-08T09:48:45;2.33;;;1.52;;
16472;SDS011;8347;52.486;13.432;2023-08-08T09:51:32;4.47;;;2.20;;
16472;SDS011;8347;52.486;13.432;2023-08-08T09:54:22;2.53;;;1.92;;
16472;SDS011;8347;52.486;13.432;2023-08-08T09:57:09;4.15;;;2.40;;
16472;SDS011;8347;52.486;13.432;2023-08-08T09:59:56;4.00;;;2.65;;
16472;SDS011;8347;52.486;13.432;2023-08-08T10:02:43;3.70;;;2.33;;
16472;SDS011;8347;52.486;13.432;2023-08-08T10:05:31;4.78;;;2.28;;
16472;SDS011;8347;52.486;13.432;2023-08-08T10:08:18;4.60;;;2.75;;
16472;SDS011;8347;52.486;13.432;2023-08-08T10:11:05;4.55;;;2.20;;
16472;SDS011;8347;52.486;13.432;2023-08-08T10:13:54;6.35;;;2.60;;
16472;SDS011;8347;52.486;13.432;2023-08-08T10:16:42;4.50;;;2.70;;
16472;SDS011;8347;52.486;13.432;2023-08-08T10:19:30;6.05;;;3.83;;
16472;SDS011;8347;52.486;13.432;2023-08-08T10:22:19;5.10;;;3.67;;
16472;SDS011;8347;52.486;13.432;2023-08-08T10:25:06;4.93;;;4.00;;
16472;SDS011;8347;52.486;13.432;2023-08-08T10:28:03;2.83;;;2.38;;
16472;SDS011;8347;52.486;13.432;2023-08-08T10:31:00;6.32;;;2.80;;
16472;SDS011;8347;52.486;13.432;2023-08-08T10:33:47;5.03;;;2.80;;
16472;SDS011;8347;52.486;13.432;2023-08-08T10:36:45;6.30;;;2.13;;
16472;SDS011;8347;52.486;13.432;2023-08-08T10:39:34;5.80;;;2.90;;
16472;SDS011;8347;52.486;13.432;2023-08-08T10:42:22;4.57;;;2.60;;
16472;SDS011;8347;52.486;13.432;2023-08-08T10:45:09;5.72;;;3.50;;
16472;SDS011;8347;52.486;13.432;2023-08-08T10:48:06;3.88;;;1.65;;
16472;SDS011;8347;52.486;13.432;2023-08-08T10:50:54;5.38;;;1.75;;
16472;SDS011;8347;52.486;13.432;2023-08-08T10:53:41;6.43;;;2.40;;
16472;SDS011;8347;52.486;13.432;2023-08-08T10:56:29;4.78;;;2.40;;
16472;SDS011;8347;52.486;13.432;2023-08-08T10:59:36;7.22;;;2.42;;
16472;SDS011;8347;52.486;13.432;2023-08-08T11:02:23;3.10;;;2.40;;
16472;SDS011;8347;52.486;13.432;2023-08-08T11:05:10;6.00;;;4.03;;
16472;SDS011;8347;52.486;13.432;2023-08-08T11:07:59;12.50;;;7.35;;
16472;SDS011;8347;52.486;13.432;2023-08-08T11:10:45;7.63;;;4.00;;
16472;SDS011;8347;52.486;13.432;2023-08-08T11:13:38;9.35;;;4.70;;
16472;SDS011;8347;52.486;13.432;2023-08-08T11:16:24;3.63;;;2.90;;
16472;SDS011;8347;52.486;13.432;2023-08-08T11:19:11;5.07;;;3.00;;
16472;SDS011;8347;52.486;13.432;2023-08-08T11:22:08;7.32;;;4.28;;
16472;SDS011;8347;52.486;13.432;2023-08-08T11:24:55;4.68;;;2.97;;
16472;SDS011;8347;52.486;13.432;2023-08-08T11:27:49;5.90;;;2.55;;
16472;SDS011;8347;52.486;13.432;2023-08-08T11:30:37;4.68;;;2.75;;
16472;SDS011;8347;52.486;13.432;2023-08-08T11:33:25;5.72;;;2.22;;
16472;SDS011;8347;52.486;13.432;2023-08-08T11:36:13;2.13;;;1.88;;
16472;SDS011;8347;52.486;13.432;2023-08-08T11:39:01;3.05;;;2.15;;
16472;SDS011;8347;52.486;13.432;2023-08-08T11:41:53;3.15;;;2.10;;
16472;SDS011;8347;52.486;13.432;2023-08-08T11:44:40;7.60;;;3.25;;
16472;SDS011;8347;52.486;13.432;2023-08-08T11:47:26;3.03;;;1.98;;
16472;SDS011;8347;52.486;13.432;2023-08-08T11:50:14;2.30;;;2.08;;
16472;SDS011;8347;52.486;13.432;2023-08-08T11:53:00;2.75;;;1.95;;
16472;SDS011;8347;52.486;13.432;2023-08-08T11:55:47;3.15;;;2.00;;
16472;SDS011;8347;52.486;13.432;2023-08-08T11:58:35;4.07;;;2.20;;
16472;SDS011;8347;52.486;13.432;2023-08-08T12:01:22;2.25;;;1.92;;
16472;SDS011;8347;52.486;13.432;2023-08-08T12:04:09;4.35;;;2.60;;
16472;SDS011;8347;52.486;13.432;2023-08-08T12:07:03;3.70;;;3.00;;
16472;SDS011;8347;52.486;13.432;2023-08-08T12:09:49;4.45;;;2.38;;
16472;SDS011;8347;52.486;13.432;2023-08-08T12:12:37;2.30;;;2.10;;
16472;SDS011;8347;52.486;13.432;2023-08-08T12:15:23;4.60;;;2.55;;
16472;SDS011;8347;52.486;13.432;2023-08-08T12:18:10;3.35;;;2.83;;
16472;SDS011;8347;52.486;13.432;2023-08-08T12:20:56;3.80;;;2.78;;
16472;SDS011;8347;52.486;13.432;2023-08-08T12:23:43;5.55;;;2.67;;
16472;SDS011;8347;52.486;13.432;2023-08-08T12:26:29;7.85;;;3.72;;
16472;SDS011;8347;52.486;13.432;2023-08-08T12:29:16;7.53;;;5.00;;
16472;SDS011;8347;52.486;13.432;2023-08-08T12:32:03;4.60;;;3.72;;
16472;SDS011;8347;52.486;13.432;2023-08-08T12:34:53;5.90;;;2.80;;
16472;SDS011;8347;52.486;13.432;2023-08-08T12:37:40;8.48;;;3.30;;
16472;SDS011;8347;52.486;13.432;2023-08-08T12:40:26;4.28;;;2.35;;
16472;SDS011;8347;52.486;13.432;2023-08-08T12:43:13;5.65;;;2.58;;
16472;SDS011;8347;52.486;13.432;2023-08-08T12:46:03;3.22;;;2.67;;
16472;SDS011;8347;52.486;13.432;2023-08-08T12:48:49;6.75;;;2.92;;
16472;SDS011;8347;52.486;13.432;2023-08-08T12:51:37;5.57;;;2.88;;
16472;SDS011;8347;52.486;13.432;2023-08-08T12:54:23;3.80;;;2.88;;
16472;SDS011;8347;52.486;13.432;2023-08-08T12:57:10;3.70;;;2.58;;
16472;SDS011;8347;52.486;13.432;2023-08-08T12:59:56;4.15;;;2.70;;
16472;SDS011;8347;52.486;13.432;2023-08-08T13:02:43;6.45;;;2.80;;
16472;SDS011;8347;52.486;13.432;2023-08-08T13:05:29;3.80;;;2.10;;
16472;SDS011;8347;52.486;13.432;2023-08-08T13:08:16;7.57;;;3.38;;
16472;SDS011;8347;52.486;13.432;2023-08-08T13:11:03;9.20;;;5.40;;
16472;SDS011;8347;52.486;13.432;2023-08-08T13:13:50;10.55;;;6.60;;
16472;SDS011;8347;52.486;13.432;2023-08-08T13:16:36;12.88;;;6.68;;
16472;SDS011;8347;52.486;13.432;2023-08-08T13:19:23;14.82;;;6.60;;
16472;SDS011;8347;52.486;13.432;2023-08-08T13:22:10;28.20;;;14.90;;
16472;SDS011;8347;52.486;13.432;2023-08-08T13:24:58;21.13;;;12.25;;
16472;SDS011;8347;52.486;13.432;2023-08-08T13:27:45;9.07;;;5.35;;
16472;SDS011;8347;52.486;13.432;2023-08-08T13:30:33;10.45;;;6.68;;
16472;SDS011;8347;52.486;13.432;2023-08-08T13:33:20;7.30;;;4.22;;
16472;SDS011;8347;52.486;13.432;2023-08-08T13:36:07;7.35;;;4.22;;
16472;SDS011;8347;52.486;13.432;2023-08-08T13:38:53;10.50;;;5.95;;
16472;SDS011;8347;52.486;13.432;2023-08-08T13:41:40;9.45;;;4.70;;
16472;SDS011;8347;52.486;13.432;2023-08-08T13:44:26;15.68;;;6.75;;
16472;SDS011;8347;52.486;13.432;2023-08-08T13:47:13;20.08;;;10.73;;
16472;SDS011;8347;52.486;13.432;2023-08-08T13:49:59;11.95;;;4.95;;
16472;SDS011;8347;52.486;13.432;2023-08-08T13:52:46;5.63;;;2.47;;
16472;SDS011;8347;52.486;13.432;2023-08-08T13:55:32;3.28;;;2.45;;
16472;SDS011;8347;52.486;13.432;2023-08-08T13:58:24;6.30;;;3.63;;
16472;SDS011;8347;52.486;13.432;2023-08-08T14:01:11;11.35;;;6.25;;
16472;SDS011;8347;52.486;13.432;2023-08-08T14:03:57;12.15;;;6.18;;
16472;SDS011;8347;52.486;13.432;2023-08-08T14:06:44;17.45;;;9.52;;
16472;SDS011;8347;52.486;13.432;2023-08-08T14:09:30;16.38;;;8.75;;
16472;SDS011;8347;52.486;13.432;2023-08-08T14:12:17;7.38;;;3.95;;
16472;SDS011;8347;52.486;13.432;2023-08-08T14:15:04;4.22;;;3.25;;
16472;SDS011;8347;52.486;13.432;2023-08-08T14:17:51;9.23;;;5.20;;
16472;SDS011;8347;52.486;13.432;2023-08-08T14:20:38;6.65;;;3.90;;
16472;SDS011;8347;52.486;13.432;2023-08-08T14:23:24;5.82;;;3.53;;
16472;SDS011;8347;52.486;13.432;2023-08-08T14:26:10;10.95;;;5.88;;
16472;SDS011;8347;52.486;13.432;2023-08-08T14:28:57;8.63;;;4.97;;
16472;SDS011;8347;52.486;13.432;2023-08-08T14:31:43;10.35;;;5.82;;
16472;SDS011;8347;52.486;13.432;2023-08-08T14:34:30;8.30;;;5.03;;
16472;SDS011;8347;52.486;13.432;2023-08-08T14:37:17;14.80;;;8.13;;
16472;SDS011;8347;52.486;13.432;2023-08-08T14:40:04;6.60;;;4.30;;
16472;SDS011;8347;52.486;13.432;2023-08-08T14:42:51;9.55;;;5.72;;
16472;SDS011;8347;52.486;13.432;2023-08-08T14:45:38;5.80;;;3.28;;
16472;SDS011;8347;52.486;13.432;2023-08-08T14:48:25;4.57;;;2.88;;
16472;SDS011;8347;52.486;13.432;2023-08-08T14:51:11;3.95;;;3.15;;
16472;SDS011;8347;52.486;13.432;2023-08-08T14:54:00;5.45;;;3.05;;
16472;SDS011;8347;52.486;13.432;2023-08-08T14:56:47;9.73;;;4.97;;
16472;SDS011;8347;52.486;13.432;2023-08-08T14:59:33;11.18;;;5.50;;
16472;SDS011;8347;52.486;13.432;2023-08-08T15:02:20;10.48;;;5.28;;
16472;SDS011;8347;52.486;13.432;2023-08-08T15:05:07;9.63;;;5.85;;
16472;SDS011;8347;52.486;13.432;2023-08-08T15:07:55;12.60;;;6.30;;
16472;SDS011;8347;52.486;13.432;2023-08-08T15:10:41;20.83;;;10.27;;
16472;SDS011;8347;52.486;13.432;2023-08-08T15:13:28;26.30;;;12.68;;
16472;SDS011;8347;52.486;13.432;2023-08-08T15:16:15;34.97;;;17.30;;
16472;SDS011;8347;52.486;13.432;2023-08-08T15:19:02;15.77;;;9.73;;
16472;SDS011;8347;52.486;13.432;2023-08-08T15:21:48;11.23;;;5.65;;
16472;SDS011;8347;52.486;13.432;2023-08-08T15:24:35;7.35;;;4.65;;
16472;SDS011;8347;52.486;13.432;2023-08-08T15:27:22;9.48;;;5.88;;
16472;SDS011;8347;52.486;13.432;2023-08-08T15:30:08;10.52;;;5.50;;
16472;SDS011;8347;52.486;13.432;2023-08-08T15:32:55;3.60;;;2.05;;
16472;SDS011;8347;52.486;13.432;2023-08-08T15:35:42;4.28;;;2.30;;
16472;SDS011;8347;52.486;13.432;2023-08-08T15:38:28;5.72;;;1.80;;
16472;SDS011;8347;52.486;13.432;2023-08-08T15:41:15;3.53;;;1.52;;
16472;SDS011;8347;52.486;13.432;2023-08-08T15:44:01;3.10;;;1.08;;
16472;SDS011;8347;52.486;13.432;2023-08-08T15:46:48;5.75;;;1.70;;
16472;SDS011;8347;52.486;13.432;2023-08-08T15:49:34;4.85;;;2.00;;
16472;SDS011;8347;52.486;13.432;2023-08-08T15:52:21;4.40;;;2.28;;
16472;SDS011;8347;52.486;13.432;2023-08-08T15:55:07;2.10;;;1.70;;
16472;SDS011;8347;52.486;13.432;2023-08-08T15:57:55;3.63;;;1.73;;
16472;SDS011;8347;52.486;13.432;2023-08-08T16:00:42;3.55;;;1.67;;
16472;SDS011;8347;52.486;13.432;2023-08-08T16:03:29;2.33;;;1.83;;
16472;SDS011;8347;52.486;13.432;2023-08-08T16:06:16;3.50;;;2.78;;
16472;SDS011;8347;52.486;13.432;2023-08-08T16:09:03;5.18;;;3.67;;
16472;SDS011;8347;52.486;13.432;2023-08-08T16:11:50;7.60;;;3.58;;
16472;SDS011;8347;52.486;13.432;2023-08-08T16:14:37;6.15;;;3.75;;
16472;SDS011;8347;52.486;13.432;2023-08-08T16:17:23;8.32;;;4.93;;
16472;SDS011;8347;52.486;13.432;2023-08-08T16:20:10;7.32;;;5.13;;
16472;SDS011;8347;52.486;13.432;2023-08-08T16:22:57;15.10;;;8.60;;
16472;SDS011;8347;52.486;13.432;2023-08-08T16:25:43;18.15;;;10.50;;
16472;SDS011;8347;52.486;13.432;2023-08-08T16:28:30;13.85;;;9.77;;
16472;SDS011;8347;52.486;13.432;2023-08-08T16:31:16;24.80;;;15.75;;
16472;SDS011;8347;52.486;13.432;2023-08-08T16:34:03;19.58;;;11.50;;
16472;SDS011;8347;52.486;13.432;2023-08-08T16:36:49;10.32;;;6.53;;
16472;SDS011;8347;52.486;13.432;2023-08-08T16:39:36;8.25;;;4.72;;
16472;SDS011;8347;52.486;13.432;2023-08-08T16:42:22;5.70;;;3.90;;
16472;SDS011;8347;52.486;13.432;2023-08-08T16:45:09;6.25;;;3.35;;
16472;SDS011;8347;52.486;13.432;2023-08-08T16:47:55;9.35;;;4.45;;